sensor_id;sensor_type;location;lat;lon;timestamp;pressure;altitude;pressure_sealevel;temperature;humidity
61769;BME280;47669;48.712;9.016;2023-10-13T00:02:01;96736.09;;;15.38;64.01
61769;BME280;47669;48.712;9.016;2023-10-13T00:04:53;96735.72;;;15.46;64.49
61769;BME280;47669;48.712;9.016;2023-10-13T00:07:40;96727.09;;;15.27;64.01
61769;BME280;47669;48.712;9.016;2023-10-13T00:10:11;96726.72;;;15.36;63.58
61769;BME280;47669;48.712;9.016;2023-10-13T00:12:44;96723.34;;;15.12;64.30
61769;BME280;47669;48.712;9.016;2023-10-13T00:15:17;96725.28;;;15.04;64.48
61769;BME280;47669;48.712;9.016;2023-10-13T00:17:48;96716.72;;;15.02;65.60
61769;BME280;47669;48.712;9.016;2023-10-13T00:20:23;96711.19;;;15.04;65.10
61769;BME280;47669;48.712;9.016;2023-10-13T00:23:01;96713.66;;;14.82;65.78
61769;BME280;47669;48.712;9.016;2023-10-13T00:25:40;96714.72;;;14.69;66.38
61769;BME280;47669;48.712;9.016;2023-10-13T00:28:38;96713.16;;;14.50;66.18
61769;BME280;47669;48.712;9.016;2023-10-13T00:31:13;96714.13;;;14.79;65.42
61769;BME280;47669;48.712;9.016;2023-10-13T00:33:47;96708.13;;;14.72;64.41
61769;BME280;47669;48.712;9.016;2023-10-13T00:36:25;96715.16;;;14.54;65.71
61769;BME280;47669;48.712;9.016;2023-10-13T00:38:54;96705.59;;;14.65;65.85
61769;BME280;47669;48.712;9.016;2023-10-13T00:41:27;96711.78;;;14.94;64.45
61769;BME280;47669;48.712;9.016;2023-10-13T00:44:17;96707.38;;;14.29;67.16
61769;BME280;47669;48.712;9.016;2023-10-13T00:46:53;96706.00;;;14.27;67.24
61769;BME280;47669;48.712;9.016;2023-10-13T00:49:37;96705.97;;;14.15;68.04
61769;BME280;47669;48.712;9.016;2023-10-13T00:52:45;96707.94;;;14.19;67.81
61769;BME280;47669;48.712;9.016;2023-10-13T00:55:20;96699.66;;;14.39;66.56
61769;BME280;47669;48.712;9.016;2023-10-13T00:58:04;96707.38;;;14.41;65.64
61769;BME280;47669;48.712;9.016;2023-10-13T01:00:50;96707.59;;;14.16;67.99
61769;BME280;47669;48.712;9.016;2023-10-13T01:03:24;96713.16;;;13.72;69.07
61769;BME280;47669;48.712;9.016;2023-10-13T01:05:56;96713.16;;;13.72;68.65
61769;BME280;47669;48.712;9.016;2023-10-13T01:08:35;96707.81;;;14.02;67.38
61769;BME280;47669;48.712;9.016;2023-10-13T01:11:10;96716.66;;;13.54;69.51
61769;BME280;47669;48.712;9.016;2023-10-13T01:13:41;96711.53;;;13.71;67.98
61769;BME280;47669;48.712;9.016;2023-10-13T01:16:12;96707.69;;;13.67;68.76
61769;BME280;47669;48.712;9.016;2023-10-13T01:18:40;96703.34;;;13.73;67.81
61769;BME280;47669;48.712;9.016;2023-10-13T01:21:18;96704.03;;;13.19;70.97
61769;BME280;47669;48.712;9.016;2023-10-13T01:24:12;96700.31;;;13.69;69.88
61769;BME280;47669;48.712;9.016;2023-10-13T01:27:05;96699.69;;;13.25;70.80
61769;BME280;47669;48.712;9.016;2023-10-13T01:30:01;96684.88;;;13.17;71.25
61769;BME280;47669;48.712;9.016;2023-10-13T01:32:41;96685.25;;;12.84;73.06
61769;BME280;47669;48.712;9.016;2023-10-13T01:35:16;96683.06;;;12.81;73.03
61769;BME280;47669;48.712;9.016;2023-10-13T01:37:44;96688.88;;;12.90;72.94
61769;BME280;47669;48.712;9.016;2023-10-13T01:40:26;96696.44;;;13.04;71.56
61769;BME280;47669;48.712;9.016;2023-10-13T01:42:57;96683.63;;;13.01;71.49
61769;BME280;47669;48.712;9.016;2023-10-13T01:45:24;96683.19;;;13.04;72.70
61769;BME280;47669;48.712;9.016;2023-10-13T01:47:59;96686.78;;;12.73;72.67
61769;BME280;47669;48.712;9.016;2023-10-13T01:50:29;96683.47;;;12.96;72.68
61769;BME280;47669;48.712;9.016;2023-10-13T01:53:03;96687.28;;;12.63;73.50
61769;BME280;47669;48.712;9.016;2023-10-13T01:56:01;96677.59;;;12.57;73.99
61769;BME280;47669;48.712;9.016;2023-10-13T01:58:50;96680.41;;;12.37;74.55
61769;BME280;47669;48.712;9.016;2023-10-13T02:01:21;96677.06;;;12.67;73.91
61769;BME280;47669;48.712;9.016;2023-10-13T02:03:58;96676.84;;;12.25;74.79
61769;BME280;47669;48.712;9.016;2023-10-13T02:06:35;96675.50;;;12.41;74.47
61769;BME280;47669;48.712;9.016;2023-10-13T02:12:05;96673.09;;;12.14;75.26
61769;BME280;47669;48.712;9.016;2023-10-13T02:14:38;96657.63;;;12.11;75.65
61769;BME280;47669;48.712;9.016;2023-10-13T02:17:14;96665.53;;;11.93;77.17
61769;BME280;47669;48.712;9.016;2023-10-13T02:19:46;96657.63;;;12.11;75.88
61769;BME280;47669;48.712;9.016;2023-10-13T02:22:19;96656.84;;;12.29;75.70
61769;BME280;47669;48.712;9.016;2023-10-13T02:24:58;96650.34;;;12.07;76.44
61769;BME280;47669;48.712;9.016;2023-10-13T02:27:27;96648.47;;;12.32;75.04
61769;BME280;47669;48.712;9.016;2023-10-13T02:30:11;96646.50;;;12.02;76.40
61769;BME280;47669;48.712;9.016;2023-10-13T02:32:49;96640.03;;;11.98;76.91
61769;BME280;47669;48.712;9.016;2023-10-13T02:35:21;96637.63;;;12.15;76.55
61769;BME280;47669;48.712;9.016;2023-10-13T02:38:00;96639.03;;;12.18;75.98
61769;BME280;47669;48.712;9.016;2023-10-13T02:40:35;96634.44;;;12.07;76.58
61769;BME280;47669;48.712;9.016;2023-10-13T02:43:12;96636.81;;;12.15;76.14
61769;BME280;47669;48.712;9.016;2023-10-13T02:45:59;96633.06;;;12.22;75.86
61769;BME280;47669;48.712;9.016;2023-10-13T02:48:33;96628.97;;;12.01;76.92
61769;BME280;47669;48.712;9.016;2023-10-13T02:51:19;96640.13;;;11.78;77.76
61769;BME280;47669;48.712;9.016;2023-10-13T02:54:10;96625.34;;;12.21;75.60
61769;BME280;47669;48.712;9.016;2023-10-13T02:56:49;96631.34;;;12.10;77.30
61769;BME280;47669;48.712;9.016;2023-10-13T02:59:26;96630.19;;;11.74;78.76
61769;BME280;47669;48.712;9.016;2023-10-13T03:02:46;96627.44;;;11.87;77.47
61769;BME280;47669;48.712;9.016;2023-10-13T03:05:26;96625.28;;;11.77;77.74
61769;BME280;47669;48.712;9.016;2023-10-13T03:08:05;96630.13;;;11.55;79.19
61769;BME280;47669;48.712;9.016;2023-10-13T03:10:41;96618.84;;;11.67;78.84
61769;BME280;47669;48.712;9.016;2023-10-13T03:13:20;96624.28;;;11.47;78.83
61769;BME280;47669;48.712;9.016;2023-10-13T03:15:56;96617.00;;;11.67;78.47
61769;BME280;47669;48.712;9.016;2023-10-13T03:18:34;96614.03;;;11.57;78.50
61769;BME280;47669;48.712;9.016;2023-10-13T03:21:06;96615.28;;;11.23;79.90
61769;BME280;47669;48.712;9.016;2023-10-13T03:23:39;96612.03;;;11.20;79.59
61769;BME280;47669;48.712;9.016;2023-10-13T03:26:13;96613.34;;;11.43;78.78
61769;BME280;47669;48.712;9.016;2023-10-13T03:28:44;96614.97;;;11.06;81.36
61769;BME280;47669;48.712;9.016;2023-10-13T03:31:25;96618.06;;;10.96;81.28
61769;BME280;47669;48.712;9.016;2023-10-13T03:34:02;96610.59;;;11.25;80.61
61769;BME280;47669;48.712;9.016;2023-10-13T03:36:35;96611.88;;;11.47;79.77
61769;BME280;47669;48.712;9.016;2023-10-13T03:39:38;96614.81;;;11.32;79.60
61769;BME280;47669;48.712;9.016;2023-10-13T03:42:15;96617.44;;;11.32;79.05
61769;BME280;47669;48.712;9.016;2023-10-13T03:44:49;96611.31;;;11.38;79.74
61769;BME280;47669;48.712;9.016;2023-10-13T03:47:27;96614.78;;;11.07;80.25
61769;BME280;47669;48.712;9.016;2023-10-13T03:49:59;96614.94;;;11.12;80.47
61769;BME280;47669;48.712;9.016;2023-10-13T03:52:40;96602.63;;;10.93;81.65
61769;BME280;47669;48.712;9.016;2023-10-13T03:55:16;96608.31;;;10.90;82.01
61769;BME280;47669;48.712;9.016;2023-10-13T03:57:43;96601.91;;;10.72;82.41
61769;BME280;47669;48.712;9.016;2023-10-13T04:00:11;96602.03;;;10.91;81.70
61769;BME280;47669;48.712;9.016;2023-10-13T04:02:46;96605.91;;;10.88;82.06
61769;BME280;47669;48.712;9.016;2023-10-13T04:05:20;96601.84;;;10.86;81.91
61769;BME280;47669;48.712;9.016;2023-10-13T04:08:04;96601.41;;;11.27;80.02
61769;BME280;47669;48.712;9.016;2023-10-13T04:10:48;96600.09;;;11.11;81.40
61769;BME280;47669;48.712;9.016;2023-10-13T04:13:16;96601.16;;;11.04;81.29
61769;BME280;47669;48.712;9.016;2023-10-13T04:16:00;96602.47;;;11.19;80.55
61769;BME280;47669;48.712;9.016;2023-10-13T04:18:44;96597.81;;;11.15;80.00
61769;BME280;47669;48.712;9.016;2023-10-13T04:21:25;96602.00;;;11.29;79.23
61769;BME280;47669;48.712;9.016;2023-10-13T04:24:21;96604.56;;;11.11;80.16
61769;BME280;47669;48.712;9.016;2023-10-13T04:27:24;96609.59;;;11.19;79.99
61769;BME280;47669;48.712;9.016;2023-10-13T04:30:09;96605.09;;;11.51;77.32
61769;BME280;47669;48.712;9.016;2023-10-13T04:32:49;96602.00;;;11.29;80.28
61769;BME280;47669;48.712;9.016;2023-10-13T04:35:31;96611.09;;;11.08;80.40
61769;BME280;47669;48.712;9.016;2023-10-13T04:38:01;96611.41;;;10.87;81.60
61769;BME280;47669;48.712;9.016;2023-10-13T04:40:43;96603.44;;;10.93;81.18
61769;BME280;47669;48.712;9.016;2023-10-13T04:43:25;96595.81;;;11.10;81.00
61769;BME280;47669;48.712;9.016;2023-10-13T04:46:19;96587.41;;;10.88;81.92
61769;BME280;47669;48.712;9.016;2023-10-13T04:49:39;96589.22;;;10.94;81.88
61769;BME280;47669;48.712;9.016;2023-10-13T04:52:07;96586.69;;;11.06;80.88
61769;BME280;47669;48.712;9.016;2023-10-13T04:57:23;96579.19;;;11.03;80.18
61769;BME280;47669;48.712;9.016;2023-10-13T05:00:02;96579.78;;;11.05;81.56
61769;BME280;47669;48.712;9.016;2023-10-13T05:02:38;96576.53;;;11.03;80.56
61769;BME280;47669;48.712;9.016;2023-10-13T05:05:23;96579.41;;;11.02;81.66
61769;BME280;47669;48.712;9.016;2023-10-13T05:07:48;96577.59;;;10.95;81.10
61769;BME280;47669;48.712;9.016;2023-10-13T05:10:34;96576.00;;;11.19;79.54
61769;BME280;47669;48.712;9.016;2023-10-13T05:13:18;96575.84;;;11.14;80.00
61769;BME280;47669;48.712;9.016;2023-10-13T05:16:02;96570.47;;;10.96;79.64
61769;BME280;47669;48.712;9.016;2023-10-13T05:18:46;96573.41;;;11.13;80.01
61769;BME280;47669;48.712;9.016;2023-10-13T05:21:30;96565.19;;;11.28;79.83
61769;BME280;47669;48.712;9.016;2023-10-13T05:24:14;96570.41;;;11.09;80.78
61769;BME280;47669;48.712;9.016;2023-10-13T05:26:58;96566.31;;;11.38;79.46
61769;BME280;47669;48.712;9.016;2023-10-13T05:29:51;96570.00;;;11.06;79.66
61769;BME280;47669;48.712;9.016;2023-10-13T05:36:10;96555.53;;;11.40;79.04
61769;BME280;47669;48.712;9.016;2023-10-13T05:38:54;96562.44;;;11.16;79.30
61769;BME280;47669;48.712;9.016;2023-10-13T05:41:38;96566.38;;;11.00;80.67
61769;BME280;47669;48.712;9.016;2023-10-13T05:44:22;96552.41;;;11.25;80.00
61769;BME280;47669;48.712;9.016;2023-10-13T05:47:03;96553.47;;;11.42;78.91
61769;BME280;47669;48.712;9.016;2023-10-13T05:49:47;96552.78;;;11.53;78.18
61769;BME280;47669;48.712;9.016;2023-10-13T05:52:18;96554.00;;;11.26;78.90
61769;BME280;47669;48.712;9.016;2023-10-13T05:55:02;96550.03;;;11.41;78.70
61769;BME280;47669;48.712;9.016;2023-10-13T05:57:48;96551.22;;;11.46;79.14
61769;BME280;47669;48.712;9.016;2023-10-13T06:00:38;96554.22;;;11.49;78.48
61769;BME280;47669;48.712;9.016;2023-10-13T06:03:21;96566.50;;;11.69;78.32
61769;BME280;47669;48.712;9.016;2023-10-13T06:06:07;96553.50;;;11.92;77.37
61769;BME280;47669;48.712;9.016;2023-10-13T06:08:51;96561.41;;;12.17;76.72
61769;BME280;47669;48.712;9.016;2023-10-13T06:11:35;96557.03;;;12.23;77.92
61769;BME280;47669;48.712;9.016;2023-10-13T06:14:19;96566.97;;;12.46;75.42
61769;BME280;47669;48.712;9.016;2023-10-13T06:17:03;96569.28;;;12.42;76.39
61769;BME280;47669;48.712;9.016;2023-10-13T06:19:47;96566.56;;;12.79;74.21
61769;BME280;47669;48.712;9.016;2023-10-13T06:22:31;96570.41;;;12.83;75.59
61769;BME280;47669;48.712;9.016;2023-10-13T06:25:15;96569.28;;;12.91;74.75
61769;BME280;47669;48.712;9.016;2023-10-13T06:27:59;96571.13;;;12.91;75.41
61769;BME280;47669;48.712;9.016;2023-10-13T06:30:52;96563.44;;;13.01;74.21
61769;BME280;47669;48.712;9.016;2023-10-13T06:33:18;96564.69;;;12.98;75.00
61769;BME280;47669;48.712;9.016;2023-10-13T06:35:49;96570.78;;;12.87;74.93
61769;BME280;47669;48.712;9.016;2023-10-13T06:38:15;96564.84;;;13.46;69.93
61769;BME280;47669;48.712;9.016;2023-10-13T06:40:46;96567.78;;;14.03;65.69
61769;BME280;47669;48.712;9.016;2023-10-13T06:43:13;96579.13;;;13.33;71.51
61769;BME280;47669;48.712;9.016;2023-10-13T06:45:45;96558.97;;;13.43;71.69
61769;BME280;47669;48.712;9.016;2023-10-13T06:48:25;96565.09;;;13.56;70.98
61769;BME280;47669;48.712;9.016;2023-10-13T06:50:51;96560.06;;;13.90;66.37
61769;BME280;47669;48.712;9.016;2023-10-13T06:53:21;96570.09;;;13.99;67.78
61769;BME280;47669;48.712;9.016;2023-10-13T06:55:47;96558.31;;;14.07;68.24
61769;BME280;47669;48.712;9.016;2023-10-13T06:58:13;96563.16;;;14.10;68.21
61769;BME280;47669;48.712;9.016;2023-10-13T07:00:42;96567.69;;;14.10;69.24
61769;BME280;47669;48.712;9.016;2023-10-13T07:03:18;96557.28;;;14.08;69.11
61769;BME280;47669;48.712;9.016;2023-10-13T07:05:44;96556.69;;;14.82;63.12
61769;BME280;47669;48.712;9.016;2023-10-13T07:08:12;96564.34;;;15.07;62.21
61769;BME280;47669;48.712;9.016;2023-10-13T07:10:48;96554.81;;;15.11;63.60
61769;BME280;47669;48.712;9.016;2023-10-13T07:13:14;96557.91;;;15.20;62.42
61769;BME280;47669;48.712;9.016;2023-10-13T07:15:42;96568.72;;;15.30;62.53
61769;BME280;47669;48.712;9.016;2023-10-13T07:18:14;96561.00;;;15.45;61.81
61769;BME280;47669;48.712;9.016;2023-10-13T07:20:42;96561.91;;;15.85;60.02
61769;BME280;47669;48.712;9.016;2023-10-13T07:23:11;96560.88;;;16.03;60.23
61769;BME280;47669;48.712;9.016;2023-10-13T07:25:43;96559.47;;;16.17;58.44
61769;BME280;47669;48.712;9.016;2023-10-13T07:28:09;96564.03;;;16.39;57.04
61769;BME280;47669;48.712;9.016;2023-10-13T07:30:36;96563.22;;;16.60;57.05
61769;BME280;47669;48.712;9.016;2023-10-13T07:33:27;96560.31;;;16.62;56.48
61769;BME280;47669;48.712;9.016;2023-10-13T07:36:04;96556.09;;;16.66;55.12
61769;BME280;47669;48.712;9.016;2023-10-13T07:38:44;96565.69;;;16.67;55.45
61769;BME280;47669;48.712;9.016;2023-10-13T07:41:14;96559.59;;;16.72;57.43
61769;BME280;47669;48.712;9.016;2023-10-13T07:43:42;96561.53;;;16.76;56.35
61769;BME280;47669;48.712;9.016;2023-10-13T07:46:08;96556.13;;;16.93;54.45
61769;BME280;47669;48.712;9.016;2023-10-13T07:48:38;96557.88;;;17.04;53.34
61769;BME280;47669;48.712;9.016;2023-10-13T07:51:09;96552.75;;;16.98;54.88
61769;BME280;47669;48.712;9.016;2023-10-13T07:53:39;96557.13;;;17.09;54.43
61769;BME280;47669;48.712;9.016;2023-10-13T07:56:08;96555.38;;;17.25;54.85
61769;BME280;47669;48.712;9.016;2023-10-13T07:58:34;96548.09;;;17.42;53.71
61769;BME280;47669;48.712;9.016;2023-10-13T08:01:12;96546.88;;;17.60;52.74
61769;BME280;47669;48.712;9.016;2023-10-13T08:03:42;96551.19;;;17.61;53.10
61769;BME280;47669;48.712;9.016;2023-10-13T08:06:17;96543.28;;;17.77;53.10
61769;BME280;47669;48.712;9.016;2023-10-13T08:08:43;96549.06;;;18.01;51.81
61769;BME280;47669;48.712;9.016;2023-10-13T08:11:15;96550.38;;;17.93;50.90
61769;BME280;47669;48.712;9.016;2023-10-13T08:13:51;96549.06;;;17.96;51.05
61769;BME280;47669;48.712;9.016;2023-10-13T08:16:21;96550.78;;;18.12;52.56
61769;BME280;47669;48.712;9.016;2023-10-13T08:18:50;96550.91;;;18.43;50.17
61769;BME280;47669;48.712;9.016;2023-10-13T08:21:16;96542.84;;;18.33;49.31
61769;BME280;47669;48.712;9.016;2023-10-13T08:23:48;96548.84;;;18.60;49.00
61769;BME280;47669;48.712;9.016;2023-10-13T08:26:24;96542.56;;;18.87;48.58
61769;BME280;47669;48.712;9.016;2023-10-13T08:28:58;96541.47;;;18.88;50.69
61769;BME280;47669;48.712;9.016;2023-10-13T08:31:30;96534.06;;;19.16;48.29
61769;BME280;47669;48.712;9.016;2023-10-13T08:33:55;96539.69;;;19.14;47.44
61769;BME280;47669;48.712;9.016;2023-10-13T08:36:31;96532.44;;;19.30;49.47
61769;BME280;47669;48.712;9.016;2023-10-13T08:38:57;96524.72;;;19.44;46.34
61769;BME280;47669;48.712;9.016;2023-10-13T08:41:23;96520.97;;;19.70;46.84
61769;BME280;47669;48.712;9.016;2023-10-13T08:43:50;96517.75;;;19.79;47.62
61769;BME280;47669;48.712;9.016;2023-10-13T08:46:16;96515.00;;;20.09;44.90
61769;BME280;47669;48.712;9.016;2023-10-13T08:48:56;96519.28;;;20.10;44.64
61769;BME280;47669;48.712;9.016;2023-10-13T08:51:39;96521.97;;;20.16;44.92
61769;BME280;47669;48.712;9.016;2023-10-13T08:54:17;96517.59;;;20.45;44.54
61769;BME280;47669;48.712;9.016;2023-10-13T08:56:58;96518.72;;;20.34;41.75
61769;BME280;47669;48.712;9.016;2023-10-13T08:59:30;96515.72;;;20.41;42.01
61769;BME280;47669;48.712;9.016;2023-10-13T09:02:12;96513.63;;;20.92;43.74
61769;BME280;47669;48.712;9.016;2023-10-13T09:04:43;96511.84;;;20.78;41.58
61769;BME280;47669;48.712;9.016;2023-10-13T09:07:10;96508.97;;;21.08;41.05
61769;BME280;47669;48.712;9.016;2023-10-13T09:12:20;96519.63;;;21.19;43.70
61769;BME280;47669;48.712;9.016;2023-10-13T09:14:52;96508.16;;;21.08;40.44
61769;BME280;47669;48.712;9.016;2023-10-13T09:17:24;96509.88;;;21.33;40.87
61769;BME280;47669;48.712;9.016;2023-10-13T09:20:09;96510.91;;;21.37;40.91
61769;BME280;47669;48.712;9.016;2023-10-13T09:22:47;96508.97;;;21.48;40.22
61769;BME280;47669;48.712;9.016;2023-10-13T09:25:28;96511.31;;;21.60;40.10
61769;BME280;47669;48.712;9.016;2023-10-13T09:28:11;96505.44;;;21.52;41.71
61769;BME280;47669;48.712;9.016;2023-10-13T09:30:49;96503.19;;;21.65;39.75
61769;BME280;47669;48.712;9.016;2023-10-13T09:33:20;96509.09;;;21.67;39.58
61769;BME280;47669;48.712;9.016;2023-10-13T09:35:53;96497.97;;;21.79;39.32
61769;BME280;47669;48.712;9.016;2023-10-13T09:38:19;96504.56;;;21.62;38.27
61769;BME280;47669;48.712;9.016;2023-10-13T09:40:45;96493.28;;;21.89;37.84
61769;BME280;47669;48.712;9.016;2023-10-13T09:43:16;96498.41;;;22.15;38.32
61769;BME280;47669;48.712;9.016;2023-10-13T09:45:43;96488.03;;;22.03;36.72
61769;BME280;47669;48.712;9.016;2023-10-13T09:48:37;96486.31;;;22.42;37.54
61769;BME280;47669;48.712;9.016;2023-10-13T09:51:12;96478.78;;;22.63;37.89
61769;BME280;47669;48.712;9.016;2023-10-13T09:53:38;96475.56;;;22.61;37.96
61769;BME280;47669;48.712;9.016;2023-10-13T09:56:13;96476.75;;;22.92;37.20
61769;BME280;47669;48.712;9.016;2023-10-13T09:58:51;96478.25;;;22.61;38.58
61769;BME280;47669;48.712;9.016;2023-10-13T10:01:24;96468.72;;;22.87;35.32
61769;BME280;47669;48.712;9.016;2023-10-13T10:04:11;96463.06;;;23.08;36.83
61769;BME280;47669;48.712;9.016;2023-10-13T10:06:54;96459.91;;;23.01;36.04
61769;BME280;47669;48.712;9.016;2023-10-13T10:09:26;96469.44;;;22.93;35.93
61769;BME280;47669;48.712;9.016;2023-10-13T10:12:27;96460.84;;;23.62;36.37
61769;BME280;47669;48.712;9.016;2023-10-13T10:17:40;96455.94;;;23.64;34.72
61769;BME280;47669;48.712;9.016;2023-10-13T10:20:06;96455.75;;;24.07;34.35
61769;BME280;47669;48.712;9.016;2023-10-13T10:22:55;96445.13;;;23.83;33.78
61769;BME280;47669;48.712;9.016;2023-10-13T10:25:29;96453.19;;;23.36;33.95
61769;BME280;47669;48.712;9.016;2023-10-13T10:27:58;96460.97;;;23.37;34.29
61769;BME280;47669;48.712;9.016;2023-10-13T10:30:27;96456.41;;;23.19;34.55
61769;BME280;47669;48.712;9.016;2023-10-13T10:32:59;96446.78;;;23.32;34.32
61769;BME280;47669;48.712;9.016;2023-10-13T10:35:27;96442.06;;;23.56;34.15
61769;BME280;47669;48.712;9.016;2023-10-13T10:38:18;96439.56;;;23.60;35.56
61769;BME280;47669;48.712;9.016;2023-10-13T10:40:59;96429.13;;;23.86;33.44
61769;BME280;47669;48.712;9.016;2023-10-13T10:43:30;96437.25;;;24.14;33.58
61769;BME280;47669;48.712;9.016;2023-10-13T10:46:14;96419.31;;;24.32;33.78
61769;BME280;47669;48.712;9.016;2023-10-13T10:48:41;96418.03;;;24.29;32.47
61769;BME280;47669;48.712;9.016;2023-10-13T10:51:13;96423.63;;;24.19;33.39
61769;BME280;47669;48.712;9.016;2023-10-13T10:53:52;96420.25;;;23.86;34.70
61769;BME280;47669;48.712;9.016;2023-10-13T10:56:22;96411.94;;;24.10;34.47
61769;BME280;47669;48.712;9.016;2023-10-13T10:59:00;96413.03;;;24.23;33.30
61769;BME280;47669;48.712;9.016;2023-10-13T11:01:27;96403.50;;;24.39;32.22
61769;BME280;47669;48.712;9.016;2023-10-13T11:04:03;96397.75;;;25.05;33.54
61769;BME280;47669;48.712;9.016;2023-10-13T11:06:50;96394.41;;;25.08;31.88
61769;BME280;47669;48.712;9.016;2023-10-13T11:09:31;96400.81;;;24.89;31.33
61769;BME280;47669;48.712;9.016;2023-10-13T11:12:17;96393.75;;;25.25;31.24
61769;BME280;47669;48.712;9.016;2023-10-13T11:15:00;96388.97;;;25.22;31.40
61769;BME280;47669;48.712;9.016;2023-10-13T11:17:25;96383.00;;;25.11;32.95
61769;BME280;47669;48.712;9.016;2023-10-13T11:20:17;96383.13;;;25.28;31.36
61769;BME280;47669;48.712;9.016;2023-10-13T11:22:49;96373.91;;;25.60;31.53
61769;BME280;47669;48.712;9.016;2023-10-13T11:25:33;96379.03;;;25.39;31.38
61769;BME280;47669;48.712;9.016;2023-10-13T11:28:15;96377.09;;;25.31;30.29
61769;BME280;47669;48.712;9.016;2023-10-13T11:30:53;96380.22;;;25.47;31.81
61769;BME280;47669;48.712;9.016;2023-10-13T11:33:22;96385.63;;;25.47;32.48
61769;BME280;47669;48.712;9.016;2023-10-13T11:35:53;96369.84;;;25.41;31.08
61769;BME280;47669;48.712;9.016;2023-10-13T11:40:55;96365.13;;;26.70;29.27
61769;BME280;47669;48.712;9.016;2023-10-13T11:43:46;96365.06;;;26.44;30.03
61769;BME280;47669;48.712;9.016;2023-10-13T11:46:15;96357.06;;;26.04;30.00
61769;BME280;47669;48.712;9.016;2023-10-13T11:48:42;96354.44;;;26.82;29.70
61769;BME280;47669;48.712;9.016;2023-10-13T11:51:10;96347.25;;;26.77;30.91
61769;BME280;47669;48.712;9.016;2023-10-13T11:53:51;96345.78;;;26.54;28.61
61769;BME280;47669;48.712;9.016;2023-10-13T11:56:20;96345.19;;;26.83;29.58
61769;BME280;47669;48.712;9.016;2023-10-13T11:58:46;96332.22;;;27.24;28.48
61769;BME280;47669;48.712;9.016;2023-10-13T12:01:12;96331.91;;;27.64;28.35
61769;BME280;47669;48.712;9.016;2023-10-13T12:03:42;96328.56;;;27.11;28.09
61769;BME280;47669;48.712;9.016;2023-10-13T12:06:27;96327.03;;;27.48;27.42
61769;BME280;47669;48.712;9.016;2023-10-13T12:09:08;96323.16;;;27.02;27.70
61769;BME280;47669;48.712;9.016;2023-10-13T12:11:46;96321.56;;;27.10;27.72
61769;BME280;47669;48.712;9.016;2023-10-13T12:14:14;96305.38;;;27.39;27.88
61769;BME280;47669;48.712;9.016;2023-10-13T12:16:46;96307.78;;;27.71;27.70
61769;BME280;47669;48.712;9.016;2023-10-13T12:19:24;96309.47;;;28.14;27.22
61769;BME280;47669;48.712;9.016;2023-10-13T12:21:55;96299.81;;;28.25;27.10
61769;BME280;47669;48.712;9.016;2023-10-13T12:24:27;96306.72;;;28.65;27.13
61769;BME280;47669;48.712;9.016;2023-10-13T12:27:05;96300.47;;;28.01;27.63
61769;BME280;47669;48.712;9.016;2023-10-13T12:29:51;96288.03;;;28.63;25.49
61769;BME280;47669;48.712;9.016;2023-10-13T12:32:18;96284.47;;;28.50;26.39
61769;BME280;47669;48.712;9.016;2023-10-13T12:34:56;96289.00;;;28.79;25.79
61769;BME280;47669;48.712;9.016;2023-10-13T12:37:26;96278.25;;;28.95;24.59
61769;BME280;47669;48.712;9.016;2023-10-13T12:40:05;96269.31;;;28.61;24.80
61769;BME280;47669;48.712;9.016;2023-10-13T12:42:48;96269.97;;;29.13;24.97
61769;BME280;47669;48.712;9.016;2023-10-13T12:45:33;96262.19;;;29.85;24.14
61769;BME280;47669;48.712;9.016;2023-10-13T12:48:16;96256.41;;;29.04;23.47
61769;BME280;47669;48.712;9.016;2023-10-13T12:51:03;96252.53;;;29.26;23.34
61769;BME280;47669;48.712;9.016;2023-10-13T12:53:55;96252.06;;;29.24;23.03
61769;BME280;47669;48.712;9.016;2023-10-13T12:56:30;96248.50;;;28.66;22.94
61769;BME280;47669;48.712;9.016;2023-10-13T12:58:55;96251.97;;;29.70;22.16
61769;BME280;47669;48.712;9.016;2023-10-13T13:01:21;96248.31;;;29.41;22.89
61769;BME280;47669;48.712;9.016;2023-10-13T13:03:49;96243.66;;;29.91;22.25
61769;BME280;47669;48.712;9.016;2023-10-13T13:06:19;96228.91;;;30.44;22.64
61769;BME280;47669;48.712;9.016;2023-10-13T13:08:54;96236.28;;;29.67;22.06
61769;BME280;47669;48.712;9.016;2023-10-13T13:11:20;96236.31;;;29.79;21.47
61769;BME280;47669;48.712;9.016;2023-10-13T13:13:46;96234.59;;;29.50;21.39
61769;BME280;47669;48.712;9.016;2023-10-13T13:16:15;96224.50;;;29.87;21.35
61769;BME280;47669;48.712;9.016;2023-10-13T13:18:43;96218.59;;;30.26;22.54
61769;BME280;47669;48.712;9.016;2023-10-13T13:21:09;96227.13;;;29.71;21.57
61769;BME280;47669;48.712;9.016;2023-10-13T13:23:37;96223.22;;;29.97;20.93
61769;BME280;47669;48.712;9.016;2023-10-13T13:26:05;96216.22;;;29.71;21.88
61769;BME280;47669;48.712;9.016;2023-10-13T13:28:40;96215.56;;;30.15;20.74
61769;BME280;47669;48.712;9.016;2023-10-13T13:31:05;96218.66;;;30.01;21.41
61769;BME280;47669;48.712;9.016;2023-10-13T13:33:33;96210.63;;;29.92;20.50
61769;BME280;47669;48.712;9.016;2023-10-13T13:36:06;96202.06;;;29.41;22.35
61769;BME280;47669;48.712;9.016;2023-10-13T13:38:32;96201.47;;;29.85;21.14
61769;BME280;47669;48.712;9.016;2023-10-13T13:40:58;96199.00;;;29.30;21.97
61769;BME280;47669;48.712;9.016;2023-10-13T13:43:24;96194.88;;;29.86;21.41
61769;BME280;47669;48.712;9.016;2023-10-13T13:46:09;96189.56;;;29.64;21.60
61769;BME280;47669;48.712;9.016;2023-10-13T13:48:38;96187.41;;;29.46;22.40
61769;BME280;47669;48.712;9.016;2023-10-13T13:51:04;96178.09;;;29.71;21.13
61769;BME280;47669;48.712;9.016;2023-10-13T13:53:31;96178.03;;;30.08;21.12
61769;BME280;47669;48.712;9.016;2023-10-13T13:56:03;96174.53;;;29.95;21.41
61769;BME280;47669;48.712;9.016;2023-10-13T13:58:29;96165.16;;;29.68;21.13
61769;BME280;47669;48.712;9.016;2023-10-13T14:01:04;96163.91;;;30.47;21.21
61769;BME280;47669;48.712;9.016;2023-10-13T14:03:41;96167.19;;;29.59;21.54
61769;BME280;47669;48.712;9.016;2023-10-13T14:06:11;96166.66;;;29.53;21.23